Whipholt, Minnesota
Current Conditions -  °F | °C
As of 2:35 PM on Thursday 27 Nov 2014 (Local Time) from KY49 Reporting Station
Clear Clear  
Wind Chill: -3°   Ceiling: Unl
Heat Index:   Visibility: 10mi
Dew Point: -7°   Wind: 5mph
Humidity: 55%   Direction: 160°SSE
Pressure: 30.33"   Gusts: NA
Location:  47.0507°N, 94.6083°W
Report Text: KY49 272035Z AUTO 16004KT 10SM CLR M15/M22 A3033 RMK AO2 T11471219
Loading
Personal Weather Stations






























Interactive Weather Map New forecast layout! Learn more

10-Day Weather Forecast

Advertisements
Track Severe Weather on mobile